sensor_id;sensor_type;location;lat;lon;timestamp;temperature;humidity
44170;DHT22;29836;52.286;9.576;2023-02-01T00:01:53;4.00;99.90
44170;DHT22;29836;52.286;9.576;2023-02-01T00:04:20;4.00;99.90
44170;DHT22;29836;52.286;9.576;2023-02-01T00:06:45;3.90;99.90
44170;DHT22;29836;52.286;9.576;2023-02-01T00:09:11;4.00;99.90
44170;DHT22;29836;52.286;9.576;2023-02-01T00:11:36;4.00;99.90
44170;DHT22;29836;52.286;9.576;2023-02-01T00:14:02;4.00;99.90
44170;DHT22;29836;52.286;9.576;2023-02-01T00:16:29;3.90;99.90
44170;DHT22;29836;52.286;9.576;2023-02-01T00:19:02;3.80;99.90
44170;DHT22;29836;52.286;9.576;2023-02-01T00:21:29;3.80;99.90
44170;DHT22;29836;52.286;9.576;2023-02-01T00:23:55;3.80;99.90
44170;DHT22;29836;52.286;9.576;2023-02-01T00:26:31;3.80;99.90
44170;DHT22;29836;52.286;9.576;2023-02-01T00:28:57;3.80;99.90
44170;DHT22;29836;52.286;9.576;2023-02-01T00:31:23;3.80;99.90
44170;DHT22;29836;52.286;9.576;2023-02-01T00:33:48;3.80;99.90
44170;DHT22;29836;52.286;9.576;2023-02-01T00:36:14;3.80;99.90
44170;DHT22;29836;52.286;9.576;2023-02-01T00:38:40;3.80;99.90
44170;DHT22;29836;52.286;9.576;2023-02-01T00:41:14;3.80;99.90
44170;DHT22;29836;52.286;9.576;2023-02-01T00:43:40;3.80;99.90
44170;DHT22;29836;52.286;9.576;2023-02-01T00:46:06;3.80;99.90
44170;DHT22;29836;52.286;9.576;2023-02-01T00:48:32;3.80;99.90
44170;DHT22;29836;52.286;9.576;2023-02-01T00:51:02;3.80;99.90
44170;DHT22;29836;52.286;9.576;2023-02-01T00:53:28;3.80;99.90
44170;DHT22;29836;52.286;9.576;2023-02-01T00:55:54;3.80;99.90
44170;DHT22;29836;52.286;9.576;2023-02-01T00:58:19;3.80;99.90
44170;DHT22;29836;52.286;9.576;2023-02-01T01:00:45;3.80;99.90
44170;DHT22;29836;52.286;9.576;2023-02-01T01:03:11;3.70;99.90
44170;DHT22;29836;52.286;9.576;2023-02-01T01:05:49;3.80;99.90
44170;DHT22;29836;52.286;9.576;2023-02-01T01:08:16;3.80;99.90
44170;DHT22;29836;52.286;9.576;2023-02-01T01:10:42;3.70;99.90
44170;DHT22;29836;52.286;9.576;2023-02-01T01:13:08;3.70;99.90
44170;DHT22;29836;52.286;9.576;2023-02-01T01:15:38;3.70;99.90
44170;DHT22;29836;52.286;9.576;2023-02-01T01:18:04;3.70;99.90
44170;DHT22;29836;52.286;9.576;2023-02-01T01:20:30;3.80;99.90
44170;DHT22;29836;52.286;9.576;2023-02-01T01:29:39;3.90;99.90
44170;DHT22;29836;52.286;9.576;2023-02-01T01:32:05;3.90;99.90
44170;DHT22;29836;52.286;9.576;2023-02-01T01:34:30;3.90;99.90
44170;DHT22;29836;52.286;9.576;2023-02-01T01:36:56;3.90;99.90
44170;DHT22;29836;52.286;9.576;2023-02-01T01:39:21;3.90;99.90
44170;DHT22;29836;52.286;9.576;2023-02-01T01:41:47;3.90;99.90
44170;DHT22;29836;52.286;9.576;2023-02-01T01:47:44;3.90;99.90
44170;DHT22;29836;52.286;9.576;2023-02-01T01:50:18;3.80;99.90
44170;DHT22;29836;52.286;9.576;2023-02-01T01:52:47;3.80;99.90
44170;DHT22;29836;52.286;9.576;2023-02-01T01:55:14;3.80;99.90
44170;DHT22;29836;52.286;9.576;2023-02-01T01:57:45;3.80;99.90
44170;DHT22;29836;52.286;9.576;2023-02-01T02:00:16;3.80;99.90
44170;DHT22;29836;52.286;9.576;2023-02-01T02:02:44;3.80;99.90
44170;DHT22;29836;52.286;9.576;2023-02-01T02:05:12;3.70;99.90
44170;DHT22;29836;52.286;9.576;2023-02-01T02:07:48;3.80;99.90
44170;DHT22;29836;52.286;9.576;2023-02-01T02:10:14;3.80;99.90
44170;DHT22;29836;52.286;9.576;2023-02-01T02:12:43;3.80;99.90
44170;DHT22;29836;52.286;9.576;2023-02-01T02:15:11;3.80;99.90
44170;DHT22;29836;52.286;9.576;2023-02-01T02:24:02;4.00;99.90
44170;DHT22;29836;52.286;9.576;2023-02-01T02:29:09;4.10;99.90
44170;DHT22;29836;52.286;9.576;2023-02-01T02:31:40;4.10;99.90
44170;DHT22;29836;52.286;9.576;2023-02-01T02:34:26;4.20;99.90
44170;DHT22;29836;52.286;9.576;2023-02-01T02:40:15;4.20;99.90
44170;DHT22;29836;52.286;9.576;2023-02-01T02:43:01;4.20;99.90
44170;DHT22;29836;52.286;9.576;2023-02-01T02:45:52;4.30;99.90
44170;DHT22;29836;52.286;9.576;2023-02-01T02:48:46;4.30;99.90
44170;DHT22;29836;52.286;9.576;2023-02-01T02:51:19;4.20;99.90
44170;DHT22;29836;52.286;9.576;2023-02-01T02:54:15;4.30;99.90
44170;DHT22;29836;52.286;9.576;2023-02-01T02:57:03;4.30;99.90
44170;DHT22;29836;52.286;9.576;2023-02-01T02:59:50;4.20;99.90
44170;DHT22;29836;52.286;9.576;2023-02-01T03:02:37;4.20;99.90
44170;DHT22;29836;52.286;9.576;2023-02-01T03:05:22;4.20;99.90
44170;DHT22;29836;52.286;9.576;2023-02-01T03:08:30;4.20;99.90
44170;DHT22;29836;52.286;9.576;2023-02-01T03:11:02;4.20;99.90
44170;DHT22;29836;52.286;9.576;2023-02-01T03:16:32;4.20;99.90
44170;DHT22;29836;52.286;9.576;2023-02-01T03:23:53;4.30;99.90
44170;DHT22;29836;52.286;9.576;2023-02-01T03:26:22;4.30;99.90
44170;DHT22;29836;52.286;9.576;2023-02-01T03:28:55;4.30;99.90
44170;DHT22;29836;52.286;9.576;2023-02-01T03:31:23;4.30;99.90
44170;DHT22;29836;52.286;9.576;2023-02-01T03:33:49;4.30;99.90
44170;DHT22;29836;52.286;9.576;2023-02-01T03:36:29;4.20;99.90
44170;DHT22;29836;52.286;9.576;2023-02-01T03:41:51;4.10;99.90
44170;DHT22;29836;52.286;9.576;2023-02-01T03:47:11;4.00;99.90
44170;DHT22;29836;52.286;9.576;2023-02-01T03:49:49;4.00;99.90
44170;DHT22;29836;52.286;9.576;2023-02-01T03:52:23;3.90;99.90
44170;DHT22;29836;52.286;9.576;2023-02-01T03:54:51;3.90;99.90
44170;DHT22;29836;52.286;9.576;2023-02-01T03:57:22;3.80;99.90
44170;DHT22;29836;52.286;9.576;2023-02-01T03:59:49;3.70;99.90
44170;DHT22;29836;52.286;9.576;2023-02-01T04:02:15;3.70;99.90
44170;DHT22;29836;52.286;9.576;2023-02-01T04:04:41;3.70;99.90
44170;DHT22;29836;52.286;9.576;2023-02-01T04:07:06;3.80;99.90
44170;DHT22;29836;52.286;9.576;2023-02-01T04:09:32;3.80;99.90
44170;DHT22;29836;52.286;9.576;2023-02-01T04:11:57;3.80;99.90
44170;DHT22;29836;52.286;9.576;2023-02-01T04:14:23;3.80;99.90
44170;DHT22;29836;52.286;9.576;2023-02-01T04:16:48;3.80;99.90
44170;DHT22;29836;52.286;9.576;2023-02-01T04:19:14;3.80;99.90
44170;DHT22;29836;52.286;9.576;2023-02-01T04:21:40;3.80;99.90
44170;DHT22;29836;52.286;9.576;2023-02-01T04:24:06;3.80;99.90
44170;DHT22;29836;52.286;9.576;2023-02-01T04:26:31;3.80;99.90
44170;DHT22;29836;52.286;9.576;2023-02-01T04:28:57;3.90;99.90
44170;DHT22;29836;52.286;9.576;2023-02-01T04:31:22;3.90;99.90
44170;DHT22;29836;52.286;9.576;2023-02-01T04:33:54;4.00;99.90
44170;DHT22;29836;52.286;9.576;2023-02-01T04:36:23;4.10;99.90
44170;DHT22;29836;52.286;9.576;2023-02-01T04:38:50;4.10;99.90
44170;DHT22;29836;52.286;9.576;2023-02-01T04:41:15;4.10;99.90
44170;DHT22;29836;52.286;9.576;2023-02-01T04:43:47;4.20;99.90
44170;DHT22;29836;52.286;9.576;2023-02-01T04:46:13;4.20;99.90
44170;DHT22;29836;52.286;9.576;2023-02-01T04:48:38;4.20;99.90
44170;DHT22;29836;52.286;9.576;2023-02-01T04:51:04;4.20;99.90
44170;DHT22;29836;52.286;9.576;2023-02-01T04:53:29;4.30;99.90
44170;DHT22;29836;52.286;9.576;2023-02-01T04:55:55;4.10;99.90
44170;DHT22;29836;52.286;9.576;2023-02-01T04:58:21;4.00;99.90
44170;DHT22;29836;52.286;9.576;2023-02-01T05:00:47;3.90;99.90
44170;DHT22;29836;52.286;9.576;2023-02-01T05:03:13;3.80;99.90
44170;DHT22;29836;52.286;9.576;2023-02-01T05:05:38;3.80;99.90
44170;DHT22;29836;52.286;9.576;2023-02-01T05:08:04;3.80;99.90
44170;DHT22;29836;52.286;9.576;2023-02-01T05:10:29;3.80;99.90
44170;DHT22;29836;52.286;9.576;2023-02-01T05:12:55;3.70;99.90
44170;DHT22;29836;52.286;9.576;2023-02-01T05:15:39;3.70;99.90
44170;DHT22;29836;52.286;9.576;2023-02-01T05:18:04;3.70;99.90
44170;DHT22;29836;52.286;9.576;2023-02-01T05:20:30;3.70;99.90
44170;DHT22;29836;52.286;9.576;2023-02-01T05:22:56;3.60;99.90
44170;DHT22;29836;52.286;9.576;2023-02-01T05:25:21;3.60;99.90
44170;DHT22;29836;52.286;9.576;2023-02-01T05:27:47;3.60;99.90
44170;DHT22;29836;52.286;9.576;2023-02-01T05:30:12;3.60;99.90
44170;DHT22;29836;52.286;9.576;2023-02-01T05:32:38;3.60;99.90
44170;DHT22;29836;52.286;9.576;2023-02-01T05:35:04;3.60;99.90
44170;DHT22;29836;52.286;9.576;2023-02-01T05:37:29;3.70;99.90
44170;DHT22;29836;52.286;9.576;2023-02-01T05:39:55;3.70;99.90
44170;DHT22;29836;52.286;9.576;2023-02-01T05:42:20;3.70;99.90
44170;DHT22;29836;52.286;9.576;2023-02-01T05:44:46;3.80;99.90
44170;DHT22;29836;52.286;9.576;2023-02-01T05:47:12;3.80;99.90
44170;DHT22;29836;52.286;9.576;2023-02-01T05:49:38;3.90;99.90
44170;DHT22;29836;52.286;9.576;2023-02-01T05:52:03;3.80;99.90
44170;DHT22;29836;52.286;9.576;2023-02-01T05:54:29;3.80;99.90
44170;DHT22;29836;52.286;9.576;2023-02-01T05:56:54;3.80;99.90
44170;DHT22;29836;52.286;9.576;2023-02-01T05:59:20;3.90;99.90
44170;DHT22;29836;52.286;9.576;2023-02-01T06:01:45;3.90;99.90
44170;DHT22;29836;52.286;9.576;2023-02-01T06:04:11;3.90;99.90
44170;DHT22;29836;52.286;9.576;2023-02-01T06:06:37;3.90;99.90
44170;DHT22;29836;52.286;9.576;2023-02-01T06:09:02;3.90;99.90
44170;DHT22;29836;52.286;9.576;2023-02-01T06:11:28;3.90;99.90
44170;DHT22;29836;52.286;9.576;2023-02-01T06:13:54;3.90;99.90
44170;DHT22;29836;52.286;9.576;2023-02-01T06:16:21;3.90;99.90
44170;DHT22;29836;52.286;9.576;2023-02-01T06:18:46;3.80;99.90
44170;DHT22;29836;52.286;9.576;2023-02-01T06:21:12;3.80;99.90
44170;DHT22;29836;52.286;9.576;2023-02-01T06:23:39;3.90;99.90
44170;DHT22;29836;52.286;9.576;2023-02-01T06:26:06;3.90;99.90
44170;DHT22;29836;52.286;9.576;2023-02-01T06:28:33;3.90;99.90
44170;DHT22;29836;52.286;9.576;2023-02-01T06:31:06;4.00;99.90
44170;DHT22;29836;52.286;9.576;2023-02-01T06:33:36;3.90;99.90
44170;DHT22;29836;52.286;9.576;2023-02-01T06:36:03;3.90;99.90
44170;DHT22;29836;52.286;9.576;2023-02-01T06:38:30;3.80;99.90
44170;DHT22;29836;52.286;9.576;2023-02-01T06:40:57;3.80;99.90
44170;DHT22;29836;52.286;9.576;2023-02-01T06:43:24;3.70;99.90
44170;DHT22;29836;52.286;9.576;2023-02-01T06:45:50;3.70;99.90
44170;DHT22;29836;52.286;9.576;2023-02-01T06:48:16;3.70;99.90
44170;DHT22;29836;52.286;9.576;2023-02-01T06:50:42;3.70;99.90
44170;DHT22;29836;52.286;9.576;2023-02-01T06:53:07;3.80;99.90
44170;DHT22;29836;52.286;9.576;2023-02-01T06:55:33;3.80;99.90
44170;DHT22;29836;52.286;9.576;2023-02-01T06:57:58;3.80;99.90
44170;DHT22;29836;52.286;9.576;2023-02-01T07:00:24;3.80;99.90
44170;DHT22;29836;52.286;9.576;2023-02-01T07:02:50;3.80;99.90
44170;DHT22;29836;52.286;9.576;2023-02-01T07:05:16;3.80;99.90
44170;DHT22;29836;52.286;9.576;2023-02-01T07:07:42;3.80;99.90
44170;DHT22;29836;52.286;9.576;2023-02-01T07:10:09;3.80;99.90
44170;DHT22;29836;52.286;9.576;2023-02-01T07:12:34;3.80;99.90
44170;DHT22;29836;52.286;9.576;2023-02-01T07:15:01;3.80;99.90
44170;DHT22;29836;52.286;9.576;2023-02-01T07:17:28;3.80;99.90
44170;DHT22;29836;52.286;9.576;2023-02-01T07:19:55;3.80;99.90
44170;DHT22;29836;52.286;9.576;2023-02-01T07:22:20;3.80;99.90
44170;DHT22;29836;52.286;9.576;2023-02-01T07:24:46;3.80;99.90
44170;DHT22;29836;52.286;9.576;2023-02-01T07:27:12;3.80;99.90
44170;DHT22;29836;52.286;9.576;2023-02-01T07:29:37;3.90;99.90
44170;DHT22;29836;52.286;9.576;2023-02-01T07:32:03;4.00;99.90
44170;DHT22;29836;52.286;9.576;2023-02-01T07:34:29;4.10;99.90
44170;DHT22;29836;52.286;9.576;2023-02-01T07:36:56;4.20;99.90
44170;DHT22;29836;52.286;9.576;2023-02-01T07:39:21;4.20;99.90
44170;DHT22;29836;52.286;9.576;2023-02-01T07:41:47;4.20;99.90
44170;DHT22;29836;52.286;9.576;2023-02-01T07:44:12;4.20;99.90
44170;DHT22;29836;52.286;9.576;2023-02-01T07:46:38;4.20;99.90
44170;DHT22;29836;52.286;9.576;2023-02-01T07:49:05;4.30;99.90
44170;DHT22;29836;52.286;9.576;2023-02-01T07:51:30;4.30;99.90
44170;DHT22;29836;52.286;9.576;2023-02-01T07:53:56;4.30;99.90
44170;DHT22;29836;52.286;9.576;2023-02-01T07:56:22;4.30;99.90
44170;DHT22;29836;52.286;9.576;2023-02-01T07:58:52;4.40;99.90
44170;DHT22;29836;52.286;9.576;2023-02-01T08:01:21;4.40;99.90
44170;DHT22;29836;52.286;9.576;2023-02-01T08:03:54;4.40;99.90
44170;DHT22;29836;52.286;9.576;2023-02-01T08:06:21;4.40;99.90
44170;DHT22;29836;52.286;9.576;2023-02-01T08:08:48;4.40;99.90
44170;DHT22;29836;52.286;9.576;2023-02-01T08:11:15;4.60;99.90
44170;DHT22;29836;52.286;9.576;2023-02-01T08:13:41;4.80;99.90
44170;DHT22;29836;52.286;9.576;2023-02-01T08:16:09;4.80;99.90
44170;DHT22;29836;52.286;9.576;2023-02-01T08:18:36;4.90;99.90
44170;DHT22;29836;52.286;9.576;2023-02-01T08:21:11;4.90;99.90
44170;DHT22;29836;52.286;9.576;2023-02-01T08:23:38;5.00;99.90
44170;DHT22;29836;52.286;9.576;2023-02-01T08:26:11;5.10;99.90
44170;DHT22;29836;52.286;9.576;2023-02-01T08:28:39;5.20;99.90
44170;DHT22;29836;52.286;9.576;2023-02-01T08:31:10;5.50;99.90
44170;DHT22;29836;52.286;9.576;2023-02-01T08:33:36;5.80;99.90
44170;DHT22;29836;52.286;9.576;2023-02-01T08:36:05;5.90;99.90
44170;DHT22;29836;52.286;9.576;2023-02-01T08:38:31;7.00;99.90
44170;DHT22;29836;52.286;9.576;2023-02-01T08:40:56;7.20;99.90
44170;DHT22;29836;52.286;9.576;2023-02-01T08:43:22;6.90;99.90
44170;DHT22;29836;52.286;9.576;2023-02-01T08:45:49;6.30;99.90
44170;DHT22;29836;52.286;9.576;2023-02-01T08:48:15;6.00;99.90
44170;DHT22;29836;52.286;9.576;2023-02-01T08:50:40;5.80;99.90
44170;DHT22;29836;52.286;9.576;2023-02-01T08:53:06;6.00;99.90
44170;DHT22;29836;52.286;9.576;2023-02-01T08:55:31;6.80;99.90
44170;DHT22;29836;52.286;9.576;2023-02-01T08:57:57;7.30;99.90
44170;DHT22;29836;52.286;9.576;2023-02-01T09:00:23;8.00;99.90
44170;DHT22;29836;52.286;9.576;2023-02-01T09:02:48;8.20;99.90
44170;DHT22;29836;52.286;9.576;2023-02-01T09:05:14;7.50;99.90
44170;DHT22;29836;52.286;9.576;2023-02-01T09:07:42;7.40;99.90
44170;DHT22;29836;52.286;9.576;2023-02-01T09:10:08;7.20;99.90
44170;DHT22;29836;52.286;9.576;2023-02-01T09:12:34;7.10;99.90
44170;DHT22;29836;52.286;9.576;2023-02-01T09:15:00;7.20;99.90
44170;DHT22;29836;52.286;9.576;2023-02-01T09:17:27;7.20;99.90
44170;DHT22;29836;52.286;9.576;2023-02-01T09:19:53;7.10;99.90
44170;DHT22;29836;52.286;9.576;2023-02-01T09:22:19;7.10;99.90
44170;DHT22;29836;52.286;9.576;2023-02-01T09:24:45;7.00;99.90
44170;DHT22;29836;52.286;9.576;2023-02-01T09:27:10;6.90;99.90
44170;DHT22;29836;52.286;9.576;2023-02-01T09:30:02;6.80;99.90
44170;DHT22;29836;52.286;9.576;2023-02-01T09:32:28;6.70;99.90
44170;DHT22;29836;52.286;9.576;2023-02-01T09:34:53;6.60;99.90
44170;DHT22;29836;52.286;9.576;2023-02-01T09:37:20;6.50;99.90
44170;DHT22;29836;52.286;9.576;2023-02-01T09:39:45;6.50;99.90
44170;DHT22;29836;52.286;9.576;2023-02-01T09:42:49;6.50;99.90
44170;DHT22;29836;52.286;9.576;2023-02-01T09:48:20;6.50;99.90
44170;DHT22;29836;52.286;9.576;2023-02-01T09:50:55;6.50;99.90
44170;DHT22;29836;52.286;9.576;2023-02-01T09:53:35;6.50;99.90
44170;DHT22;29836;52.286;9.576;2023-02-01T09:56:11;6.50;99.90
44170;DHT22;29836;52.286;9.576;2023-02-01T09:58:39;6.40;99.90
44170;DHT22;29836;52.286;9.576;2023-02-01T10:01:20;6.40;99.90
44170;DHT22;29836;52.286;9.576;2023-02-01T10:03:48;6.40;99.90
44170;DHT22;29836;52.286;9.576;2023-02-01T10:15:35;6.70;99.90
44170;DHT22;29836;52.286;9.576;2023-02-01T10:18:15;6.90;99.90
44170;DHT22;29836;52.286;9.576;2023-02-01T10:21:08;7.10;99.90
44170;DHT22;29836;52.286;9.576;2023-02-01T10:26:24;7.10;99.90
44170;DHT22;29836;52.286;9.576;2023-02-01T10:28:52;7.10;99.90
44170;DHT22;29836;52.286;9.576;2023-02-01T10:31:21;7.20;99.90
44170;DHT22;29836;52.286;9.576;2023-02-01T10:33:50;7.20;99.90
44170;DHT22;29836;52.286;9.576;2023-02-01T10:36:23;7.30;99.90
44170;DHT22;29836;52.286;9.576;2023-02-01T10:38:52;7.30;99.90
44170;DHT22;29836;52.286;9.576;2023-02-01T10:41:20;7.20;99.90
44170;DHT22;29836;52.286;9.576;2023-02-01T10:43:48;7.00;99.90
44170;DHT22;29836;52.286;9.576;2023-02-01T10:46:16;7.00;99.90
44170;DHT22;29836;52.286;9.576;2023-02-01T10:48:42;6.90;99.90
44170;DHT22;29836;52.286;9.576;2023-02-01T10:54:08;6.80;99.90
44170;DHT22;29836;52.286;9.576;2023-02-01T10:56:37;6.80;99.90
44170;DHT22;29836;52.286;9.576;2023-02-01T10:59:05;6.70;99.90
44170;DHT22;29836;52.286;9.576;2023-02-01T11:01:36;6.70;99.90
44170;DHT22;29836;52.286;9.576;2023-02-01T11:04:04;6.70;99.90
44170;DHT22;29836;52.286;9.576;2023-02-01T11:06:36;6.70;99.90
44170;DHT22;29836;52.286;9.576;2023-02-01T11:09:10;6.60;99.90
44170;DHT22;29836;52.286;9.576;2023-02-01T11:17:16;6.50;99.90
44170;DHT22;29836;52.286;9.576;2023-02-01T11:19:38;6.50;99.90
44170;DHT22;29836;52.286;9.576;2023-02-01T11:22:04;6.50;99.90
44170;DHT22;29836;52.286;9.576;2023-02-01T11:24:35;6.50;99.90
44170;DHT22;29836;52.286;9.576;2023-02-01T11:27:05;6.50;99.90
44170;DHT22;29836;52.286;9.576;2023-02-01T11:29:40;6.60;99.90
44170;DHT22;29836;52.286;9.576;2023-02-01T11:32:08;6.60;99.90
44170;DHT22;29836;52.286;9.576;2023-02-01T11:34:45;6.60;99.90
44170;DHT22;29836;52.286;9.576;2023-02-01T11:37:28;6.60;99.90
44170;DHT22;29836;52.286;9.576;2023-02-01T11:40:00;6.60;99.90
44170;DHT22;29836;52.286;9.576;2023-02-01T11:42:28;6.60;99.90
44170;DHT22;29836;52.286;9.576;2023-02-01T11:47:41;6.40;99.90
44170;DHT22;29836;52.286;9.576;2023-02-01T11:50:28;6.30;99.90
44170;DHT22;29836;52.286;9.576;2023-02-01T11:53:06;6.40;99.90
44170;DHT22;29836;52.286;9.576;2023-02-01T11:55:51;6.40;99.90
44170;DHT22;29836;52.286;9.576;2023-02-01T11:58:35;6.40;99.90
44170;DHT22;29836;52.286;9.576;2023-02-01T12:01:29;6.60;99.90
44170;DHT22;29836;52.286;9.576;2023-02-01T12:04:10;6.60;99.90
44170;DHT22;29836;52.286;9.576;2023-02-01T12:09:49;6.60;99.90
44170;DHT22;29836;52.286;9.576;2023-02-01T12:12:30;6.70;99.90
44170;DHT22;29836;52.286;9.576;2023-02-01T12:18:08;6.90;99.90
44170;DHT22;29836;52.286;9.576;2023-02-01T12:23:33;6.90;99.90
44170;DHT22;29836;52.286;9.576;2023-02-01T12:28:39;6.40;99.90
44170;DHT22;29836;52.286;9.576;2023-02-01T12:34:10;5.80;99.90
44170;DHT22;29836;52.286;9.576;2023-02-01T12:36:50;5.50;99.90
44170;DHT22;29836;52.286;9.576;2023-02-01T12:39:32;5.30;99.90
44170;DHT22;29836;52.286;9.576;2023-02-01T12:42:22;5.10;99.90
44170;DHT22;29836;52.286;9.576;2023-02-01T12:47:32;5.00;99.90
44170;DHT22;29836;52.286;9.576;2023-02-01T12:50:06;5.10;99.90
44170;DHT22;29836;52.286;9.576;2023-02-01T12:52:52;5.20;99.90
44170;DHT22;29836;52.286;9.576;2023-02-01T12:58:11;5.60;99.90
44170;DHT22;29836;52.286;9.576;2023-02-01T13:00:49;5.70;99.90
44170;DHT22;29836;52.286;9.576;2023-02-01T13:03:35;5.60;99.90
44170;DHT22;29836;52.286;9.576;2023-02-01T13:06:15;5.60;99.90
44170;DHT22;29836;52.286;9.576;2023-02-01T13:11:38;5.40;99.90
44170;DHT22;29836;52.286;9.576;2023-02-01T13:14:37;5.20;99.90
44170;DHT22;29836;52.286;9.576;2023-02-01T13:19:52;5.00;99.90
44170;DHT22;29836;52.286;9.576;2023-02-01T13:22:32;4.90;99.90
44170;DHT22;29836;52.286;9.576;2023-02-01T13:27:35;4.80;99.90
44170;DHT22;29836;52.286;9.576;2023-02-01T13:30:12;4.70;99.90
44170;DHT22;29836;52.286;9.576;2023-02-01T13:41:57;4.50;99.90
44170;DHT22;29836;52.286;9.576;2023-02-01T13:44:32;4.40;99.90
44170;DHT22;29836;52.286;9.576;2023-02-01T13:47:01;4.40;99.90
44170;DHT22;29836;52.286;9.576;2023-02-01T13:49:31;3.70;99.90
44170;DHT22;29836;52.286;9.576;2023-02-01T13:51:58;2.60;99.90
44170;DHT22;29836;52.286;9.576;2023-02-01T13:54:33;2.00;99.90
44170;DHT22;29836;52.286;9.576;2023-02-01T13:57:01;1.50;99.90
44170;DHT22;29836;52.286;9.576;2023-02-01T14:05:58;1.10;99.90
44170;DHT22;29836;52.286;9.576;2023-02-01T14:16:15;0.90;99.90
44170;DHT22;29836;52.286;9.576;2023-02-01T14:21:27;0.90;99.90
44170;DHT22;29836;52.286;9.576;2023-02-01T14:31:52;0.80;99.90
44170;DHT22;29836;52.286;9.576;2023-02-01T14:34:31;1.00;99.90
44170;DHT22;29836;52.286;9.576;2023-02-01T14:37:07;1.20;99.90
44170;DHT22;29836;52.286;9.576;2023-02-01T14:39:58;1.30;99.90
44170;DHT22;29836;52.286;9.576;2023-02-01T14:42:43;1.40;99.90
44170;DHT22;29836;52.286;9.576;2023-02-01T15:01:34;2.00;99.90
44170;DHT22;29836;52.286;9.576;2023-02-01T15:04:08;2.10;99.90
44170;DHT22;29836;52.286;9.576;2023-02-01T15:06:56;2.20;99.90
44170;DHT22;29836;52.286;9.576;2023-02-01T15:14:33;2.40;99.90
44170;DHT22;29836;52.286;9.576;2023-02-01T15:16:58;2.40;99.90
44170;DHT22;29836;52.286;9.576;2023-02-01T15:19:27;2.40;99.90
44170;DHT22;29836;52.286;9.576;2023-02-01T15:21:54;2.40;99.90
44170;DHT22;29836;52.286;9.576;2023-02-01T15:26:50;2.40;99.90
44170;DHT22;29836;52.286;9.576;2023-02-01T15:29:16;2.40;99.90
44170;DHT22;29836;52.286;9.576;2023-02-01T15:31:48;2.50;99.90
44170;DHT22;29836;52.286;9.576;2023-02-01T15:34:14;2.50;99.90
44170;DHT22;29836;52.286;9.576;2023-02-01T15:36:41;2.40;99.90
44170;DHT22;29836;52.286;9.576;2023-02-01T15:39:16;2.40;99.90
44170;DHT22;29836;52.286;9.576;2023-02-01T15:41:51;2.40;99.90
44170;DHT22;29836;52.286;9.576;2023-02-01T15:46:54;2.30;99.90
44170;DHT22;29836;52.286;9.576;2023-02-01T15:49:29;2.40;99.90
44170;DHT22;29836;52.286;9.576;2023-02-01T15:51:57;2.50;99.90
44170;DHT22;29836;52.286;9.576;2023-02-01T15:54:30;2.60;99.90
44170;DHT22;29836;52.286;9.576;2023-02-01T15:56:58;2.60;99.90
44170;DHT22;29836;52.286;9.576;2023-02-01T15:59:31;2.70;99.90
44170;DHT22;29836;52.286;9.576;2023-02-01T16:01:58;2.70;99.90
44170;DHT22;29836;52.286;9.576;2023-02-01T16:04:26;2.70;99.90
44170;DHT22;29836;52.286;9.576;2023-02-01T16:06:57;2.70;99.90
44170;DHT22;29836;52.286;9.576;2023-02-01T16:09:25;2.80;99.90
44170;DHT22;29836;52.286;9.576;2023-02-01T16:12:01;2.90;99.90
44170;DHT22;29836;52.286;9.576;2023-02-01T16:14:27;2.90;99.90
44170;DHT22;29836;52.286;9.576;2023-02-01T16:16:54;2.80;99.90
44170;DHT22;29836;52.286;9.576;2023-02-01T16:19:20;2.90;99.90
44170;DHT22;29836;52.286;9.576;2023-02-01T16:21:48;2.80;99.90
44170;DHT22;29836;52.286;9.576;2023-02-01T16:24:14;2.90;99.90
44170;DHT22;29836;52.286;9.576;2023-02-01T16:26:39;2.90;99.90
44170;DHT22;29836;52.286;9.576;2023-02-01T16:29:05;2.90;99.90
44170;DHT22;29836;52.286;9.576;2023-02-01T16:31:34;2.90;99.90
44170;DHT22;29836;52.286;9.576;2023-02-01T16:34:00;2.90;99.90
44170;DHT22;29836;52.286;9.576;2023-02-01T16:36:26;3.00;99.90
44170;DHT22;29836;52.286;9.576;2023-02-01T16:38:53;3.00;99.90
44170;DHT22;29836;52.286;9.576;2023-02-01T16:41:20;3.10;99.90
44170;DHT22;29836;52.286;9.576;2023-02-01T16:43:49;3.10;99.90
44170;DHT22;29836;52.286;9.576;2023-02-01T16:46:18;3.10;99.90
44170;DHT22;29836;52.286;9.576;2023-02-01T16:48:56;3.30;99.90
44170;DHT22;29836;52.286;9.576;2023-02-01T16:51:24;3.40;99.90
44170;DHT22;29836;52.286;9.576;2023-02-01T16:53:51;3.40;99.90
44170;DHT22;29836;52.286;9.576;2023-02-01T16:56:19;3.50;99.90
44170;DHT22;29836;52.286;9.576;2023-02-01T16:58:46;3.60;99.90
44170;DHT22;29836;52.286;9.576;2023-02-01T17:01:13;3.50;99.90
44170;DHT22;29836;52.286;9.576;2023-02-01T17:03:40;3.50;99.90
44170;DHT22;29836;52.286;9.576;2023-02-01T17:06:08;3.40;99.90
44170;DHT22;29836;52.286;9.576;2023-02-01T17:08:37;3.50;99.90
44170;DHT22;29836;52.286;9.576;2023-02-01T17:11:05;3.50;99.90
44170;DHT22;29836;52.286;9.576;2023-02-01T17:13:31;3.40;99.90
44170;DHT22;29836;52.286;9.576;2023-02-01T17:16:00;3.50;99.90
44170;DHT22;29836;52.286;9.576;2023-02-01T17:18:28;3.50;99.90
44170;DHT22;29836;52.286;9.576;2023-02-01T17:20:57;3.50;99.90
44170;DHT22;29836;52.286;9.576;2023-02-01T17:23:23;3.70;99.90
44170;DHT22;29836;52.286;9.576;2023-02-01T17:25:48;3.70;99.90
44170;DHT22;29836;52.286;9.576;2023-02-01T17:28:14;3.70;99.90
44170;DHT22;29836;52.286;9.576;2023-02-01T17:30:39;3.70;99.90
44170;DHT22;29836;52.286;9.576;2023-02-01T17:33:28;3.80;99.90
44170;DHT22;29836;52.286;9.576;2023-02-01T17:35:55;3.80;99.90
44170;DHT22;29836;52.286;9.576;2023-02-01T17:38:22;4.00;99.90
44170;DHT22;29836;52.286;9.576;2023-02-01T17:40:48;4.00;99.90
44170;DHT22;29836;52.286;9.576;2023-02-01T17:43:20;4.10;99.90
44170;DHT22;29836;52.286;9.576;2023-02-01T17:46:03;4.10;99.90
44170;DHT22;29836;52.286;9.576;2023-02-01T17:48:30;4.10;99.90
44170;DHT22;29836;52.286;9.576;2023-02-01T17:50:55;4.10;99.90
44170;DHT22;29836;52.286;9.576;2023-02-01T17:53:28;4.10;99.90
44170;DHT22;29836;52.286;9.576;2023-02-01T17:55:54;4.10;99.90
44170;DHT22;29836;52.286;9.576;2023-02-01T17:58:23;4.10;99.90
44170;DHT22;29836;52.286;9.576;2023-02-01T18:00:49;4.10;99.90
44170;DHT22;29836;52.286;9.576;2023-02-01T18:03:27;4.10;99.90
44170;DHT22;29836;52.286;9.576;2023-02-01T18:05:55;4.10;99.90
44170;DHT22;29836;52.286;9.576;2023-02-01T18:08:23;4.20;99.90
44170;DHT22;29836;52.286;9.576;2023-02-01T18:10:51;4.30;99.90
44170;DHT22;29836;52.286;9.576;2023-02-01T18:13:18;4.40;99.90
44170;DHT22;29836;52.286;9.576;2023-02-01T18:15:44;4.40;99.90
44170;DHT22;29836;52.286;9.576;2023-02-01T18:18:10;4.30;99.90
44170;DHT22;29836;52.286;9.576;2023-02-01T18:20:36;4.20;99.90
44170;DHT22;29836;52.286;9.576;2023-02-01T18:23:04;4.10;99.90
44170;DHT22;29836;52.286;9.576;2023-02-01T18:25:30;4.00;99.90
44170;DHT22;29836;52.286;9.576;2023-02-01T18:28:01;4.00;99.90
44170;DHT22;29836;52.286;9.576;2023-02-01T18:30:29;3.90;99.90
44170;DHT22;29836;52.286;9.576;2023-02-01T18:32:56;3.90;99.90